createdAt,value
2023-03-17T00:00:54.972Z,93
2023-03-17T00:02:56.363Z,93.1
2023-03-17T00:04:57.712Z,93.1
2023-03-17T00:06:59.089Z,93.1
2023-03-17T00:09:00.486Z,93
2023-03-17T00:11:01.857Z,93
2023-03-17T00:13:03.230Z,92.9
2023-03-17T00:15:07.943Z,92.8
2023-03-17T00:17:09.346Z,92.7
2023-03-17T00:19:10.736Z,92.7
2023-03-17T00:20:13.086Z,92.8
2023-03-17T00:22:14.440Z,92.9
2023-03-17T00:30:23.332Z,93.7
2023-03-17T00:32:24.716Z,93.7
2023-03-17T00:34:26.129Z,93.6
2023-03-17T00:36:27.511Z,93.5
2023-03-17T00:38:28.871Z,93.4
2023-03-17T00:40:30.497Z,93.5
2023-03-17T00:42:34.924Z,93.8
2023-03-17T00:44:36.292Z,93.9
2023-03-17T00:46:37.762Z,93.9
2023-03-17T00:48:39.109Z,93.9
2023-03-17T00:50:40.533Z,93.9
2023-03-17T00:54:43.306Z,93.8
2023-03-17T00:56:47.959Z,93.9
2023-03-17T00:58:49.322Z,93.9
2023-03-17T01:00:50.799Z,93.8
2023-03-17T01:02:52.064Z,93.6
2023-03-17T01:05:05.569Z,93.6
2023-03-17T01:06:54.823Z,93.6
2023-03-17T01:08:56.169Z,93.6
2023-03-17T01:11:00.850Z,93.7
2023-03-17T01:13:02.236Z,93.9
2023-03-17T01:15:03.617Z,94
2023-03-17T01:16:06.043Z,94.1
2023-03-17T01:18:07.307Z,94.1
2023-03-17T01:20:08.682Z,94.2
2023-03-17T01:22:10.125Z,94.2
2023-03-17T01:24:14.697Z,94.4
2023-03-17T01:26:16.099Z,94.4
2023-03-17T01:28:17.471Z,94.5
2023-03-17T01:30:18.907Z,94.5
2023-03-17T01:32:20.268Z,94.6
2023-03-17T01:34:21.751Z,94.6
2023-03-17T01:36:23.030Z,94.6
2023-03-17T01:38:27.654Z,94.6
2023-03-17T01:40:29.438Z,94.5
2023-03-17T01:42:30.424Z,94.4
2023-03-17T01:44:31.792Z,94.4
2023-03-17T01:46:33.139Z,94.3
2023-03-17T01:48:34.512Z,94.3
2023-03-17T01:50:35.921Z,94.3
2023-03-17T01:54:42.037Z,94.4
2023-03-17T01:56:43.416Z,94.5
2023-03-17T01:58:44.774Z,94.5
2023-03-17T02:00:46.234Z,94.5
2023-03-17T02:02:47.484Z,94.5
2023-03-17T02:04:48.892Z,94.5
2023-03-17T02:06:58.309Z,94.5
2023-03-17T02:08:54.914Z,94.5
2023-03-17T02:10:56.298Z,94.5
2023-03-17T02:11:58.619Z,94.5
2023-03-17T02:13:59.978Z,94.6
2023-03-17T02:16:01.324Z,94.7
2023-03-17T02:18:02.703Z,94.8
2023-03-17T02:20:07.381Z,94.9
2023-03-17T02:22:08.760Z,94.9
2023-03-17T02:30:14.257Z,95.1
2023-03-17T02:32:15.632Z,95.2
2023-03-17T02:34:20.289Z,95.3
2023-03-17T02:36:21.679Z,95.3
2023-03-17T02:38:23.031Z,95.3
2023-03-17T02:40:24.421Z,95.2
2023-03-17T02:42:25.765Z,95.1
2023-03-17T02:44:27.207Z,95.1
2023-03-17T02:46:30.173Z,95.1
2023-03-17T02:48:34.712Z,95.1
2023-03-17T02:50:36.115Z,95.1
2023-03-17T02:52:37.327Z,95.1
2023-03-17T02:54:38.660Z,95
2023-03-17T02:56:40.061Z,94.9
2023-03-17T02:58:41.425Z,94.9
2023-03-17T03:00:42.815Z,94.9
2023-03-17T03:02:47.529Z,94.8
2023-03-17T03:04:48.781Z,94.8
2023-03-17T03:06:50.188Z,94.6
2023-03-17T03:09:19.025Z,94.3
2023-03-17T03:11:20.427Z,94.3
2023-03-17T03:13:21.796Z,94.3
2023-03-17T03:15:26.465Z,94.3
2023-03-17T03:17:27.826Z,94.3
2023-03-17T03:21:30.587Z,94.4
2023-03-17T03:27:34.716Z,94.3
2023-03-17T03:37:44.827Z,93.9
2023-03-17T03:39:46.189Z,93.9
2023-03-17T03:41:47.570Z,93.9
2023-03-17T03:43:52.294Z,93.8
2023-03-17T03:45:53.597Z,93.7
2023-03-17T03:47:56.438Z,93.6
2023-03-17T03:49:56.352Z,93.6
2023-03-17T03:51:57.739Z,93.5
2023-03-17T03:53:59.149Z,93.5
2023-03-17T03:56:00.497Z,93.4
2023-03-17T03:58:07.655Z,93.3
2023-03-17T04:00:06.536Z,93.2
2023-03-17T04:02:09.562Z,93.2
2023-03-17T04:09:14.363Z,93.1
2023-03-17T04:13:20.426Z,93.2
2023-03-17T04:19:24.547Z,93.3
2023-03-17T04:21:25.946Z,93.3
2023-03-17T04:23:27.387Z,93.2
2023-03-17T04:25:31.978Z,93.1
2023-03-17T04:29:34.735Z,93.1
2023-03-17T04:37:40.227Z,93.1
2023-03-17T04:39:44.912Z,93.1
2023-03-17T04:41:46.338Z,93
2023-03-17T04:45:49.095Z,92.8
2023-03-17T04:47:50.453Z,92.8
2023-03-17T04:49:51.833Z,92.7
2023-03-17T04:51:53.222Z,92.6
2023-03-17T04:53:57.887Z,92.5
2023-03-17T04:55:59.239Z,92.6
2023-03-17T04:58:00.638Z,92.5
2023-03-17T04:59:02.963Z,92.5
2023-03-17T05:01:04.418Z,92.5
2023-03-17T05:05:07.098Z,92.4
2023-03-17T05:07:11.757Z,92.2
2023-03-17T05:11:14.531Z,92.1
2023-03-17T05:13:15.919Z,91.9
2023-03-17T05:15:17.312Z,91.9
2023-03-17T05:17:18.703Z,91.8
2023-03-17T05:19:20.095Z,91.8
2023-03-17T05:21:24.746Z,91.8
2023-03-17T05:23:26.149Z,91.9
2023-03-17T05:25:27.528Z,91.8
2023-03-17T05:27:28.879Z,91.8
2023-03-17T05:29:30.295Z,91.7
2023-03-17T05:31:31.737Z,91.7
2023-03-17T05:33:33.046Z,91.6
2023-03-17T05:37:39.101Z,91.9
2023-03-17T05:41:41.893Z,92.1
2023-03-17T05:43:43.253Z,92.2
2023-03-17T05:45:44.667Z,92.2
2023-03-17T05:47:46.014Z,92.2
2023-03-17T05:49:50.695Z,92.1
2023-03-17T05:51:52.113Z,92.2
2023-03-17T05:53:53.469Z,92.2
2023-03-17T06:00:59.951Z,92.3
2023-03-17T06:05:06.012Z,91.9
2023-03-17T06:07:07.381Z,91.9
2023-03-17T06:09:08.765Z,91.7
2023-03-17T06:11:10.147Z,91.6
2023-03-17T06:13:11.533Z,91.6
2023-03-17T06:19:18.989Z,91.5
2023-03-17T06:21:20.376Z,91.4
2023-03-17T06:23:21.723Z,91.4
2023-03-17T06:25:23.121Z,91.4
2023-03-17T06:27:24.495Z,91.5
2023-03-17T06:29:25.846Z,91.5
2023-03-17T06:31:30.549Z,91.4
2023-03-17T06:33:31.893Z,91.3
2023-03-17T06:35:33.748Z,91.3
2023-03-17T06:37:34.694Z,91.3
2023-03-17T06:39:36.050Z,91.3
2023-03-17T06:41:37.436Z,91.4
2023-03-17T06:43:38.838Z,91.5
2023-03-17T06:45:43.511Z,91.6
2023-03-17T06:47:44.892Z,91.6
2023-03-17T06:49:46.269Z,91.6
2023-03-17T06:52:08.936Z,91.3
2023-03-17T06:54:10.300Z,91.2
2023-03-17T06:56:20.129Z,91.2
2023-03-17T06:58:16.345Z,91.3
2023-03-17T07:00:17.722Z,91.3
2023-03-17T07:02:19.132Z,91.5
2023-03-17T07:04:20.507Z,91.5
2023-03-17T07:06:21.856Z,91.3
2023-03-17T07:08:23.261Z,91.3
2023-03-17T07:10:24.651Z,91.1
2023-03-17T07:12:29.352Z,90.8
2023-03-17T07:14:30.726Z,90.8
2023-03-17T07:16:32.193Z,90.5
2023-03-17T07:18:33.474Z,87.3
2023-03-17T07:20:34.853Z,87
2023-03-17T07:22:36.220Z,86.9
2023-03-17T07:24:37.627Z,86.3
2023-03-17T07:26:42.337Z,86.2
2023-03-17T07:28:43.734Z,85.9
2023-03-17T07:30:45.105Z,85.6
2023-03-17T07:32:46.718Z,85.2
2023-03-17T07:34:47.873Z,85.1
2023-03-17T07:36:49.290Z,84.1
2023-03-17T07:38:50.659Z,83.7
2023-03-17T07:40:55.362Z,83
2023-03-17T07:42:56.808Z,82.8
2023-03-17T07:44:58.151Z,82.8
2023-03-17T07:46:00.499Z,83
2023-03-17T07:48:01.954Z,83.2
2023-03-17T07:50:03.271Z,82.4
2023-03-17T07:52:04.684Z,82.1
2023-03-17T07:54:09.347Z,81.3
2023-03-17T07:56:10.816Z,81.2
2023-03-17T08:02:14.991Z,80.9
2023-03-17T08:12:25.108Z,80.7
2023-03-17T08:16:27.987Z,80.3
2023-03-17T08:20:31.113Z,79.7
2023-03-17T08:24:36.891Z,76.9
2023-03-17T08:26:38.184Z,76.4
2023-03-17T08:28:39.605Z,75.2
2023-03-17T08:32:42.406Z,74.6
2023-03-17T08:34:43.793Z,74.3
2023-03-17T08:36:50.030Z,73.8
2023-03-17T08:38:51.410Z,73.7
2023-03-17T08:40:52.851Z,73.5
2023-03-17T08:41:55.175Z,73.2
2023-03-17T08:45:57.994Z,72.1
2023-03-17T08:47:59.365Z,72.2
2023-03-17T08:50:01.983Z,70.9
2023-03-17T08:52:03.299Z,70.8
2023-03-17T09:00:08.857Z,69.4
2023-03-17T09:02:10.376Z,68.7
2023-03-17T09:04:14.979Z,68.1
2023-03-17T09:06:16.368Z,67.4
2023-03-17T09:10:19.132Z,66.9
2023-03-17T09:12:20.517Z,66.9
2023-03-17T09:18:27.995Z,67.8
2023-03-17T09:24:32.182Z,69
2023-03-17T09:28:34.988Z,68.7
2023-03-17T09:32:41.107Z,67.9
2023-03-17T09:34:42.416Z,67.8
2023-03-17T09:36:43.857Z,67.6
2023-03-17T09:39:47.568Z,67.6
2023-03-17T09:41:48.916Z,67.4
2023-03-17T09:43:50.294Z,66.8
2023-03-17T09:45:55.025Z,66.7
2023-03-17T09:54:00.568Z,66.5
2023-03-17T10:00:08.052Z,67.7
2023-03-17T10:02:09.457Z,68.1
2023-03-17T10:04:10.773Z,68.5
2023-03-17T10:08:29.375Z,69.7
2023-03-17T10:10:15.009Z,69.9
2023-03-17T10:12:16.362Z,71.9
2023-03-17T10:14:21.055Z,72.7
2023-03-17T10:16:22.541Z,72.9
2023-03-17T10:18:23.830Z,73.3
2023-03-17T10:24:28.027Z,72.7
2023-03-17T10:26:29.393Z,72.3
2023-03-17T10:28:34.112Z,71.7
2023-03-17T10:30:35.486Z,71.8
2023-03-17T10:32:36.906Z,71.8
2023-03-17T10:37:01.189Z,70.5
2023-03-17T10:39:02.570Z,70.9
2023-03-17T10:43:08.636Z,71.3
2023-03-17T10:45:10.002Z,71.1
2023-03-17T10:47:12.179Z,71
2023-03-17T10:49:12.776Z,71.4
2023-03-17T10:53:15.516Z,71.4
2023-03-17T10:55:20.223Z,71.9
2023-03-17T10:57:21.630Z,72
2023-03-17T10:59:23.047Z,72.1
2023-03-17T11:03:25.737Z,72.3
2023-03-17T11:05:27.138Z,72
2023-03-17T11:07:28.499Z,72.3
2023-03-17T11:09:33.214Z,72.7
2023-03-17T11:11:34.605Z,73.2
2023-03-17T11:13:35.938Z,73.1
2023-03-17T11:15:37.381Z,72.7
2023-03-17T11:17:38.713Z,72.7
2023-03-17T11:19:40.130Z,72.2
2023-03-17T11:21:41.534Z,72.5
2023-03-17T11:27:48.803Z,72
2023-03-17T11:43:04.114Z,73.8
2023-03-17T11:45:05.479Z,75.1
2023-03-17T11:47:06.846Z,75
2023-03-17T11:49:08.246Z,75.1
2023-03-17T11:51:12.929Z,74.4
2023-03-17T11:57:17.033Z,74.3
2023-03-17T11:59:18.490Z,73.4
2023-03-17T12:01:19.749Z,73.7
2023-03-17T12:03:21.273Z,73.7
2023-03-17T12:05:25.849Z,73.9
2023-03-17T12:09:28.505Z,74.4
2023-03-17T12:11:29.875Z,74.2
2023-03-17T12:13:31.249Z,74.3
2023-03-17T12:15:32.654Z,74.3
2023-03-17T12:17:33.983Z,74.1
2023-03-17T12:19:39.367Z,74
2023-03-17T12:21:40.035Z,74.2
2023-03-17T12:24:43.804Z,76.2
2023-03-17T12:26:45.027Z,75.8
2023-03-17T12:28:46.386Z,75.5
2023-03-17T12:30:47.841Z,75.6
2023-03-17T12:32:52.543Z,74.4
2023-03-17T12:34:57.344Z,74
2023-03-17T12:36:55.103Z,74.1
2023-03-17T12:38:56.382Z,73.7
2023-03-17T12:42:59.000Z,71.9
2023-03-17T12:53:08.714Z,72.3
2023-03-17T12:55:10.524Z,73
2023-03-17T12:57:11.349Z,72.8
2023-03-17T12:59:12.596Z,72.9
2023-03-17T13:03:18.685Z,73
2023-03-17T13:05:20.276Z,72.4
2023-03-17T13:07:21.071Z,72.5
2023-03-17T13:09:22.320Z,72.3
2023-03-17T13:11:23.659Z,72.5
2023-03-17T13:13:24.901Z,72.2
2023-03-17T13:15:29.755Z,71.7
2023-03-17T13:17:30.741Z,72
2023-03-17T13:19:32.102Z,72
2023-03-17T13:20:34.451Z,73.1
2023-03-17T13:22:35.695Z,69.8
2023-03-17T13:24:36.961Z,70.6
2023-03-17T13:26:38.198Z,70.5
2023-03-17T13:28:42.674Z,71.7
2023-03-17T13:30:44.057Z,71.9
2023-03-17T13:32:45.437Z,72.4
2023-03-17T13:34:46.595Z,72.8
2023-03-17T13:36:47.903Z,72.6
2023-03-17T13:39:04.965Z,72.7
2023-03-17T13:40:50.576Z,72.4
2023-03-17T13:42:55.176Z,72.4
2023-03-17T13:44:56.520Z,72.6
2023-03-17T13:46:57.864Z,72.8
2023-03-17T13:48:59.151Z,73.1
2023-03-17T13:51:00.510Z,72.7
2023-03-17T13:53:01.842Z,72.7
2023-03-17T13:55:03.161Z,72.4
2023-03-17T13:57:07.618Z,72.1
2023-03-17T13:59:08.956Z,72
2023-03-17T14:01:10.305Z,72.6
2023-03-17T14:03:11.556Z,72.8
2023-03-17T14:05:12.920Z,72.8
2023-03-17T14:07:14.280Z,72.7
2023-03-17T14:09:15.650Z,72.4
2023-03-17T14:11:20.184Z,72.5
2023-03-17T14:13:21.464Z,72.1
2023-03-17T14:15:22.698Z,72.1
2023-03-17T14:17:51.243Z,71.6
2023-03-17T14:19:52.491Z,71.7
2023-03-17T14:21:53.777Z,71.2
2023-03-17T14:24:00.008Z,71.2
2023-03-17T14:26:01.223Z,70.6
2023-03-17T14:28:02.570Z,70.2
2023-03-17T14:38:12.273Z,73.2
2023-03-17T14:48:18.781Z,71.8
2023-03-17T14:54:25.906Z,73.1
2023-03-17T14:56:27.175Z,72.9
2023-03-17T14:58:28.537Z,73.5
2023-03-17T15:00:29.786Z,73.4
2023-03-17T15:02:31.098Z,74.4
2023-03-17T15:04:32.373Z,74.7
2023-03-17T15:06:37.583Z,75.9
2023-03-17T15:08:38.141Z,76.2
2023-03-17T15:10:39.478Z,76.3
2023-03-17T15:11:41.735Z,76.6
2023-03-17T15:13:43.008Z,76.8
2023-03-17T15:15:44.400Z,76.8
2023-03-17T15:17:45.746Z,76.4
2023-03-17T15:19:50.419Z,76.1
2023-03-17T15:21:51.798Z,76.1
2023-03-17T15:23:53.075Z,77.3
2023-03-17T15:31:58.559Z,76.3
2023-03-17T15:34:03.151Z,77.1
2023-03-17T15:36:04.598Z,77.3
2023-03-17T15:38:05.918Z,77.3
2023-03-17T15:40:07.313Z,77.9
2023-03-17T15:42:08.705Z,78.2
2023-03-17T15:44:10.091Z,77.9
2023-03-17T15:46:11.475Z,79
2023-03-17T15:48:16.149Z,83.7
2023-03-17T15:50:17.512Z,85.5
2023-03-17T15:52:18.943Z,85.5
2023-03-17T15:54:20.268Z,86.5
2023-03-17T15:56:21.663Z,86.8
2023-03-17T15:58:23.014Z,87.2
2023-03-17T16:00:24.440Z,88.4
2023-03-17T16:02:29.105Z,89.1
2023-03-17T16:04:30.517Z,89.6
2023-03-17T16:06:31.909Z,89.8
2023-03-17T16:09:35.614Z,89.3
2023-03-17T16:13:38.398Z,89.3
2023-03-17T16:23:48.593Z,90.8
2023-03-17T16:27:51.333Z,91.8
2023-03-17T16:29:56.014Z,92.8
2023-03-17T16:31:57.447Z,93.2
2023-03-17T16:33:58.833Z,93.6
2023-03-17T16:36:00.270Z,94
2023-03-17T16:38:01.630Z,94.3
2023-03-17T16:40:03.046Z,94.4
2023-03-17T16:42:04.405Z,94.5
2023-03-17T16:44:09.095Z,94.8
2023-03-17T16:46:10.517Z,94.8
2023-03-17T16:48:11.879Z,94.8
2023-03-17T16:50:13.255Z,94.7
2023-03-17T16:52:14.631Z,94.6
2023-03-17T16:54:16.035Z,94.4
2023-03-17T16:56:17.522Z,94
2023-03-17T16:58:22.136Z,93.5
2023-03-17T17:00:23.554Z,93.4
2023-03-17T17:02:24.994Z,93.1
2023-03-17T17:03:27.279Z,92.9
2023-03-17T17:05:28.700Z,92.8
2023-03-17T17:07:30.122Z,92.8
2023-03-17T17:09:31.509Z,92.8
2023-03-17T17:11:36.177Z,92.6
2023-03-17T17:13:37.601Z,92.6
2023-03-17T17:15:38.976Z,92.7
2023-03-17T17:21:43.161Z,92.7
2023-03-17T17:23:44.591Z,92.8
2023-03-17T17:25:49.285Z,93.9
2023-03-17T17:31:53.485Z,95.7
2023-03-17T17:37:57.630Z,96.1
2023-03-17T17:44:05.718Z,97.6
2023-03-17T17:46:07.076Z,98.3
2023-03-17T17:48:08.489Z,98.9
2023-03-17T17:50:09.876Z,99.2
2023-03-17T17:52:11.267Z,99.6
2023-03-17T17:54:15.940Z,99.9
2023-03-17T17:56:17.372Z,99.9
2023-03-17T17:58:18.774Z,99.9
2023-03-17T18:02:37.152Z,99.9
2023-03-17T18:04:38.627Z,99.9
2023-03-17T18:06:43.265Z,99.9
2023-03-17T18:08:44.656Z,99.9
2023-03-17T18:10:46.068Z,99.9
2023-03-17T18:12:47.467Z,99.9
2023-03-17T18:14:48.842Z,99.9
2023-03-17T18:16:50.253Z,99.9
2023-03-17T18:18:51.632Z,99.9
2023-03-17T18:20:56.333Z,99.9
2023-03-17T18:22:57.787Z,99.9
2023-03-17T18:24:59.133Z,99.9
2023-03-17T18:27:00.566Z,99.9
2023-03-17T18:29:01.950Z,99.9
2023-03-17T18:31:03.343Z,99.9
2023-03-17T18:33:04.835Z,99.9
2023-03-17T18:35:09.447Z,99.9
2023-03-17T18:37:10.816Z,99.9
2023-03-17T18:39:12.234Z,99.9
2023-03-17T18:41:13.636Z,99.9
2023-03-17T18:45:16.479Z,99.9
2023-03-17T18:47:17.898Z,99.9
2023-03-17T18:49:22.540Z,99.9
2023-03-17T18:51:23.948Z,99.9
2023-03-17T18:54:27.742Z,99.9
2023-03-17T18:56:29.125Z,99.9
2023-03-17T18:58:30.536Z,99.9
2023-03-17T19:00:32.198Z,99.9
2023-03-17T19:02:36.621Z,99.9
2023-03-17T19:04:38.056Z,99.9
2023-03-17T19:06:39.460Z,99.9
2023-03-17T19:08:40.839Z,99.9
2023-03-17T19:10:42.248Z,99.9
2023-03-17T19:12:43.638Z,99.9
2023-03-17T19:14:45.070Z,99.9
2023-03-17T19:16:49.791Z,99.9
2023-03-17T19:18:51.138Z,99.9
2023-03-17T19:20:52.540Z,99.9
2023-03-17T19:22:53.970Z,99.9
2023-03-17T19:28:58.142Z,99.9
2023-03-17T19:37:07.019Z,99.9
2023-03-17T19:39:08.450Z,99.9
2023-03-17T19:47:17.336Z,99.9
2023-03-17T19:50:21.072Z,99.9
2023-03-17T19:52:22.509Z,99.9
2023-03-17T19:54:23.891Z,99.9
2023-03-17T19:56:25.283Z,99.9
2023-03-17T19:58:29.962Z,99.9
2023-03-17T20:00:31.547Z,99.9
2023-03-17T20:02:32.773Z,99.9
2023-03-17T20:04:34.216Z,99.9
2023-03-17T20:06:35.578Z,99.9
2023-03-17T20:08:36.991Z,99.9
2023-03-17T20:10:38.404Z,99.9
2023-03-17T20:12:43.050Z,99.9
2023-03-17T20:16:47.397Z,99.9
2023-03-17T20:18:48.757Z,99.9
2023-03-17T20:20:50.131Z,99.9
2023-03-17T20:24:52.949Z,99.9
2023-03-17T20:26:57.656Z,99.6
2023-03-17T20:35:03.994Z,98.1
2023-03-17T20:37:04.644Z,97.7
2023-03-17T20:39:06.055Z,97.2
2023-03-17T20:41:10.761Z,95.9
2023-03-17T20:43:12.133Z,95.7
2023-03-17T20:45:13.545Z,95.3
2023-03-17T20:46:15.992Z,94.9
2023-03-17T20:48:17.280Z,94.4
2023-03-17T20:50:18.679Z,94.2
2023-03-17T20:52:20.108Z,93.7
2023-03-17T20:54:24.764Z,93
2023-03-17T20:56:26.211Z,92.9
2023-03-17T20:58:27.644Z,92.8
2023-03-17T21:00:28.982Z,92.7
2023-03-17T21:02:30.465Z,92.7
2023-03-17T21:04:31.752Z,92.5
2023-03-17T21:06:33.149Z,92.7
2023-03-17T21:08:37.883Z,92.5
2023-03-17T21:10:39.236Z,92.5
2023-03-17T21:12:40.680Z,92.4
2023-03-17T21:14:42.072Z,92.5
2023-03-17T21:16:43.471Z,92.3
2023-03-17T21:18:44.842Z,92.3
2023-03-17T21:20:46.277Z,92.4
2023-03-17T21:22:50.941Z,92.6
2023-03-17T21:24:52.350Z,92.6
2023-03-17T21:26:53.736Z,92.7
2023-03-17T21:34:59.298Z,92.1
2023-03-17T21:37:04.020Z,92
2023-03-17T21:39:05.411Z,92
2023-03-17T21:41:06.816Z,92.1
2023-03-17T21:47:32.690Z,92.1
2023-03-17T21:49:37.413Z,92.2
2023-03-17T22:01:45.829Z,92.5
2023-03-17T22:05:51.904Z,92.3
2023-03-17T22:09:54.707Z,92.2
2023-03-17T22:11:56.099Z,92.2
2023-03-17T22:13:57.511Z,92.3
2023-03-17T22:15:58.879Z,92.5
2023-03-17T22:18:03.577Z,92.7
2023-03-17T22:20:04.970Z,92.8
2023-03-17T22:22:06.411Z,92.8
2023-03-17T22:24:07.771Z,92.8
2023-03-17T22:26:09.198Z,92.8
2023-03-17T22:28:10.594Z,92.8
2023-03-17T22:30:11.996Z,92.9
2023-03-17T22:32:16.714Z,93.1
2023-03-17T22:34:18.092Z,93.2
2023-03-17T22:36:19.491Z,93.2
2023-03-17T22:37:21.820Z,93.3
2023-03-17T22:39:23.269Z,93.3
2023-03-17T22:41:24.638Z,93.3
2023-03-17T22:45:30.774Z,93.4
2023-03-17T22:47:32.166Z,93.4
2023-03-17T22:49:33.580Z,93.4
2023-03-17T22:55:37.762Z,93.6
2023-03-17T23:05:48.031Z,94.1
2023-03-17T23:07:51.522Z,94.2
2023-03-17T23:09:50.836Z,94.3
2023-03-17T23:11:52.213Z,94.3
2023-03-17T23:13:56.953Z,94.5
2023-03-17T23:15:58.350Z,94.6
2023-03-17T23:17:59.756Z,94.4
2023-03-17T23:20:01.141Z,94.3
2023-03-17T23:22:02.529Z,94.4
2023-03-17T23:24:03.924Z,94.4
2023-03-17T23:26:05.330Z,94.5
2023-03-17T23:28:10.055Z,94.6
2023-03-17T23:30:11.945Z,94.8
2023-03-17T23:32:12.840Z,94.7
2023-03-17T23:35:16.603Z,94.7
2023-03-17T23:37:18.011Z,94.8
2023-03-17T23:39:19.385Z,94.9
2023-03-17T23:45:26.881Z,95.6
2023-03-17T23:47:28.276Z,95.7
2023-03-17T23:49:29.708Z,95.9
2023-03-17T23:53:32.484Z,96.2
2023-03-17T23:55:37.219Z,96.3
2023-03-17T23:57:38.624Z,96.4
2023-03-17T23:59:39.965Z,96.5
